Time;durP1;ratioP1;P1;durP2;ratioP2;P2;SDS_P1;SDS_P2;PMS_P1;PMS_P2;Temp;Humidity;BMP_temperature;BMP_pressure;BME280_temperature;BME280_humidity;BME280_pressure;Samples;Min_cycle;Max_cycle;Signal;HPM_P1;HPM_P2
2022/01/02 00:00:44;;;;;;;1.02;0.90;;;3.80;99.90;;;;;;5114242;28;20065;-84
2022/01/02 00:03:13;;;;;;;1.13;1.00;;;3.70;99.90;;;;;;5115171;28;20073;-83
2022/01/02 00:05:40;;;;;;;1.08;0.88;;;3.70;99.90;;;;;;5117094;28;20479;-89
2022/01/02 00:08:08;;;;;;;1.63;1.33;;;3.60;99.90;;;;;;5114992;28;20062;-89
2022/01/02 00:10:37;;;;;;;4.90;2.70;;;3.60;99.90;;;;;;5116782;28;20030;-85
2022/01/02 00:13:04;;;;;;;43.10;25.70;;;3.60;99.90;;;;;;5130110;27;20024;-80
2022/01/02 00:15:30;;;;;;;103.13;54.40;;;3.50;99.90;;;;;;5114298;28;20034;-80
2022/01/02 00:18:07;;;;;;;52.08;28.00;;;3.50;99.90;;;;;;5114963;28;20452;-80
2022/01/02 00:20:35;;;;;;;15.57;8.35;;;3.50;99.90;;;;;;5114695;28;20027;-83
2022/01/02 00:23:06;;;;;;;6.82;3.90;;;3.40;99.90;;;;;;5114570;28;20020;-81
2022/01/02 00:25:39;;;;;;;4.32;2.30;;;3.40;99.90;;;;;;5113105;28;20028;-82
2022/01/02 00:28:12;;;;;;;1.77;1.33;;;3.30;99.90;;;;;;5112587;28;20086;-82
2022/01/02 00:30:39;;;;;;;2.47;1.08;;;3.20;99.90;;;;;;5116401;27;20050;-90
2022/01/02 00:33:04;;;;;;;1.27;1.02;;;3.10;99.90;;;;;;5115329;28;20031;-86
2022/01/02 00:35:30;;;;;;;1.60;1.38;;;3.10;99.90;;;;;;5116025;28;20089;-87
2022/01/02 00:37:56;;;;;;;0.98;0.88;;;3.00;99.90;;;;;;5115222;28;20032;-86
2022/01/02 00:40:22;;;;;;;1.65;0.90;;;2.90;99.90;;;;;;5125007;28;20436;-86
2022/01/02 00:42:55;;;;;;;1.20;0.65;;;2.90;99.90;;;;;;5125957;28;20024;-85
2022/01/02 00:45:25;;;;;;;1.67;1.00;;;2.80;99.90;;;;;;5116779;28;20073;-85
2022/01/02 00:48:00;;;;;;;1.10;1.00;;;2.80;99.90;;;;;;5113242;28;20355;-85
2022/01/02 00:50:36;;;;;;;1.20;0.82;;;2.80;99.90;;;;;;5113206;28;20032;-86
2022/01/02 00:53:02;;;;;;;1.77;0.90;;;2.80;99.90;;;;;;5113617;28;20027;-86
2022/01/02 00:55:34;;;;;;;1.63;1.17;;;2.80;99.90;;;;;;5114647;27;20027;-86
2022/01/02 00:58:07;;;;;;;1.23;1.00;;;2.80;99.90;;;;;;5112951;28;20032;-86
2022/01/02 01:00:34;;;;;;;0.93;0.85;;;2.70;99.90;;;;;;5114491;28;20027;-87
2022/01/02 01:03:05;;;;;;;1.52;1.00;;;2.70;99.90;;;;;;5130476;27;20020;-85
2022/01/02 01:05:34;;;;;;;0.70;0.70;;;2.70;99.90;;;;;;5113522;28;20148;-85
2022/01/02 01:08:07;;;;;;;0.70;0.70;;;2.70;99.90;;;;;;5114207;27;20028;-85
2022/01/02 01:10:39;;;;;;;0.60;0.60;;;2.70;99.90;;;;;;5113561;28;20568;-85
2022/01/02 01:13:08;;;;;;;0.98;0.70;;;2.60;99.90;;;;;;5113246;28;20019;-86
2022/01/02 01:15:35;;;;;;;0.60;0.60;;;2.60;99.90;;;;;;5130421;27;20033;-85
2022/01/02 01:18:03;;;;;;;0.82;0.70;;;2.60;99.90;;;;;;5114811;28;20027;-85
2022/01/02 01:20:32;;;;;;;1.00;0.60;;;2.60;99.90;;;;;;5114093;28;20101;-85
2022/01/02 01:22:58;;;;;;;0.63;0.60;;;2.60;99.90;;;;;;5115472;28;20030;-87
2022/01/02 01:25:24;;;;;;;0.60;0.60;;;2.60;99.90;;;;;;5115672;28;20031;-85
2022/01/02 01:27:52;;;;;;;0.98;0.75;;;2.50;99.90;;;;;;5131195;27;20019;-85
2022/01/02 01:30:21;;;;;;;1.88;0.68;;;2.50;99.90;;;;;;5113345;28;20358;-86
2022/01/02 01:32:47;;;;;;;1.92;0.70;;;2.50;99.90;;;;;;5115130;28;20106;-86
2022/01/02 01:35:15;;;;;;;0.55;0.55;;;2.50;99.90;;;;;;5115228;28;20080;-84
2022/01/02 01:37:41;;;;;;;1.27;0.60;;;2.50;98.20;;;;;;5113860;28;20059;-85
2022/01/02 01:40:09;;;;;;;0.90;0.80;;;2.40;98.70;;;;;;5116934;28;20652;-84
2022/01/02 01:42:38;;;;;;;0.55;0.55;;;2.40;98.80;;;;;;5121668;28;20044;-85
2022/01/02 01:47:48;;;;;;;0.90;0.68;;;2.40;97.40;;;;;;5114245;28;20473;-84
2022/01/02 01:50:15;;;;;;;0.60;0.60;;;2.30;96.90;;;;;;5114516;28;20027;-86
2022/01/02 01:52:41;;;;;;;0.88;0.70;;;2.30;97.80;;;;;;5114832;28;20065;-85
2022/01/02 01:55:08;;;;;;;0.80;0.75;;;2.30;96.20;;;;;;5114685;28;20038;-86
2022/01/02 01:57:34;;;;;;;0.80;0.73;;;2.20;96.40;;;;;;5112342;28;20028;-84
2022/01/02 02:00:03;;;;;;;2.25;0.70;;;2.30;95.40;;;;;;5128889;27;20019;-86
2022/01/02 02:02:29;;;;;;;0.63;0.60;;;2.20;94.50;;;;;;5113012;28;20132;-86
2022/01/02 02:04:55;;;;;;;0.60;0.60;;;2.20;93.90;;;;;;5112042;28;20019;-86
2022/01/02 02:07:27;;;;;;;0.80;0.50;;;2.20;92.80;;;;;;5112987;28;20019;-85
2022/01/02 02:10:13;;;;;;;0.45;0.45;;;2.20;91.90;;;;;;5130666;27;20019;-86
2022/01/02 02:12:41;;;;;;;0.50;0.47;;;2.10;92.00;;;;;;5114106;28;20481;-85
2022/01/02 02:15:09;;;;;;;0.60;0.55;;;2.10;90.90;;;;;;5114501;28;20026;-84
2022/01/02 02:17:36;;;;;;;0.50;0.50;;;2.10;91.80;;;;;;5113055;28;20053;-84
2022/01/02 02:20:20;;;;;;;0.68;0.50;;;2.10;91.30;;;;;;5114091;28;20031;-84
2022/01/02 02:22:49;;;;;;;0.80;0.63;;;2.10;87.70;;;;;;5114885;28;20058;-85
2022/01/02 02:25:17;;;;;;;0.70;0.60;;;2.10;90.60;;;;;;5115404;28;20104;-85
2022/01/02 02:27:54;;;;;;;0.70;0.70;;;2.10;90.80;;;;;;5114232;28;20045;-85
2022/01/02 02:30:20;;;;;;;1.95;0.70;;;2.10;90.40;;;;;;5113721;28;20035;-85
2022/01/02 02:32:46;;;;;;;0.85;0.70;;;2.10;91.70;;;;;;5113912;28;20565;-84
2022/01/02 02:35:13;;;;;;;1.52;0.93;;;2.10;91.70;;;;;;5131024;27;20099;-85
2022/01/02 02:37:44;;;;;;;1.00;0.90;;;2.10;91.40;;;;;;5125074;27;20023;-84
2022/01/02 02:40:16;;;;;;;0.88;0.70;;;2.00;91.20;;;;;;5121026;28;20059;-83
2022/01/02 02:49:18;;;;;;;0.60;0.60;;;2.00;89.60;;;;;;5115679;28;20034;-84
2022/01/02 02:51:26;;;;;;;0.47;0.47;;;2.00;85.20;;;;;;5103761;28;20392;-83
2022/01/02 02:53:53;;;;;;;0.73;0.73;;;2.00;85.90;;;;;;5113808;28;20026;-84
2022/01/02 02:56:42;;;;;;;0.93;0.60;;;1.90;86.10;;;;;;5130941;28;20067;-84
2022/01/02 02:59:05;;;;;;;1.05;0.60;;;1.90;85.50;;;;;;5113539;28;20048;-85
2022/01/02 03:01:31;;;;;;;1.10;0.60;;;1.90;84.80;;;;;;5115159;28;20528;-86
2022/01/02 03:03:57;;;;;;;1.00;0.80;;;1.80;84.40;;;;;;5096314;28;20110;-84
2022/01/02 03:06:23;;;;;;;0.68;0.50;;;1.80;83.60;;;;;;5114602;28;20047;-85
2022/01/02 03:08:50;;;;;;;0.90;0.75;;;1.80;83.00;;;;;;5133193;27;20028;-85
2022/01/02 03:11:19;;;;;;;0.82;0.82;;;1.70;82.60;;;;;;5118587;28;20469;-85
2022/01/02 03:13:47;;;;;;;1.27;0.70;;;1.70;82.40;;;;;;5118902;28;20031;-84
2022/01/02 03:16:13;;;;;;;0.82;0.70;;;1.60;82.80;;;;;;5118903;28;20032;-85
2022/01/02 03:18:39;;;;;;;1.02;0.90;;;1.50;82.80;;;;;;5135467;27;20028;-85
2022/01/02 03:21:05;;;;;;;0.77;0.60;;;1.50;83.80;;;;;;5117689;28;20066;-84
2022/01/02 03:23:32;;;;;;;1.02;0.65;;;1.50;84.60;;;;;;5117590;28;20023;-83
2022/01/02 03:25:58;;;;;;;1.40;0.90;;;1.50;85.40;;;;;;5117202;28;20480;-84
2022/01/02 03:28:24;;;;;;;0.70;0.70;;;1.40;85.60;;;;;;5118235;28;20028;-83
2022/01/02 03:30:50;;;;;;;1.10;1.00;;;1.50;86.10;;;;;;5082809;28;20378;-83
2022/01/02 03:33:16;;;;;;;2.72;1.27;;;1.40;86.80;;;;;;5136723;27;20389;-84
2022/01/02 03:35:42;;;;;;;1.50;0.90;;;1.50;87.40;;;;;;5119210;28;20058;-84
2022/01/02 03:38:08;;;;;;;1.10;0.80;;;1.50;88.10;;;;;;5134617;27;20024;-83
2022/01/02 03:40:35;;;;;;;1.73;0.93;;;1.50;88.40;;;;;;5118561;28;20101;-84
2022/01/02 03:43:02;;;;;;;0.85;0.85;;;1.50;88.80;;;;;;5105441;28;20027;-85
2022/01/02 03:45:29;;;;;;;0.77;0.77;;;1.50;88.90;;;;;;5127029;28;20035;-85
2022/01/02 03:47:54;;;;;;;1.00;0.88;;;1.50;89.40;;;;;;5127537;28;20027;-84
2022/01/02 03:50:20;;;;;;;1.58;0.73;;;1.50;90.00;;;;;;5118232;28;20057;-84
2022/01/02 03:52:47;;;;;;;1.17;0.90;;;1.50;90.00;;;;;;5118802;28;20047;-84
2022/01/02 03:55:13;;;;;;;1.27;1.00;;;1.50;90.20;;;;;;5100829;28;20035;-84
2022/01/02 03:57:38;;;;;;;1.33;1.10;;;1.50;90.10;;;;;;5117806;28;20023;-84
2022/01/02 04:00:07;;;;;;;1.15;0.98;;;1.50;90.20;;;;;;5116962;28;20034;-87
2022/01/02 04:02:34;;;;;;;1.40;1.10;;;1.50;90.60;;;;;;5118447;28;20102;-84
2022/01/02 04:05:00;;;;;;;1.67;1.23;;;1.50;90.90;;;;;;5117529;28;20069;-85
2022/01/02 04:07:26;;;;;;;2.30;1.20;;;1.50;91.20;;;;;;5116614;28;20424;-85
2022/01/02 04:09:52;;;;;;;0.90;0.90;;;1.50;91.60;;;;;;5116595;28;20020;-85
2022/01/02 04:12:17;;;;;;;1.50;1.02;;;1.50;91.60;;;;;;5116860;28;20679;-85
2022/01/02 04:14:44;;;;;;;1.17;0.98;;;1.50;91.40;;;;;;5116165;28;20087;-85
2022/01/02 04:17:09;;;;;;;0.70;0.70;;;1.50;91.60;;;;;;5115739;28;20019;-85
2022/01/02 04:19:35;;;;;;;1.10;0.95;;;1.50;91.80;;;;;;5116192;28;20524;-84
2022/01/02 04:22:01;;;;;;;1.00;0.85;;;1.50;91.70;;;;;;5116609;28;20376;-84
2022/01/02 04:24:26;;;;;;;0.90;0.90;;;1.50;91.00;;;;;;5115763;28;20385;-86
2022/01/02 04:26:52;;;;;;;0.70;0.70;;;1.50;90.60;;;;;;5099416;28;20027;-85
2022/01/02 04:29:17;;;;;;;1.45;1.10;;;1.40;90.20;;;;;;5099242;28;20031;-85
2022/01/02 04:31:43;;;;;;;1.63;1.17;;;1.40;90.40;;;;;;5116638;28;20034;-86
2022/01/02 04:34:09;;;;;;;2.08;1.27;;;1.40;90.50;;;;;;5116368;28;20024;-85
2022/01/02 04:36:34;;;;;;;1.80;1.20;;;1.40;90.50;;;;;;5115540;28;20055;-86
2022/01/02 04:39:00;;;;;;;2.90;1.33;;;1.40;90.20;;;;;;5133447;27;20381;-86
2022/01/02 04:41:27;;;;;;;1.65;1.30;;;1.30;90.30;;;;;;5133445;27;20023;-85
2022/01/02 04:43:53;;;;;;;2.25;1.20;;;1.30;90.00;;;;;;5133445;27;20027;-85
2022/01/02 04:46:19;;;;;;;1.65;1.20;;;1.30;90.20;;;;;;5124222;28;20457;-83
2022/01/02 04:48:44;;;;;;;1.77;1.30;;;1.30;89.70;;;;;;5125992;28;20053;-83
2022/01/02 04:51:10;;;;;;;1.70;1.08;;;1.30;90.30;;;;;;5118755;28;20031;-85
2022/01/02 04:53:37;;;;;;;1.23;1.13;;;1.30;90.10;;;;;;5115172;28;20088;-85
2022/01/02 04:56:03;;;;;;;1.67;1.40;;;1.30;90.40;;;;;;5117273;28;20116;-86
2022/01/02 04:58:29;;;;;;;1.75;1.10;;;1.30;90.60;;;;;;5117238;28;20104;-85
2022/01/02 05:00:55;;;;;;;1.55;1.20;;;1.20;90.60;;;;;;5114838;28;20073;-86
2022/01/02 05:03:20;;;;;;;0.90;0.90;;;1.20;90.10;;;;;;5115330;28;20031;-85
2022/01/02 05:05:46;;;;;;;1.08;0.80;;;1.20;90.00;;;;;;5115474;28;20034;-85
2022/01/02 05:08:12;;;;;;;1.55;1.08;;;1.20;89.80;;;;;;5115650;28;20023;-84
2022/01/02 05:10:38;;;;;;;1.52;0.93;;;1.10;89.60;;;;;;5115943;28;20419;-84
2022/01/02 05:13:04;;;;;;;1.58;1.02;;;1.10;90.00;;;;;;5116754;28;20046;-86
2022/01/02 05:15:30;;;;;;;1.20;1.10;;;1.10;89.80;;;;;;5119770;28;20521;-85
2022/01/02 05:17:55;;;;;;;1.38;0.90;;;1.00;90.10;;;;;;5116748;28;20051;-85
2022/01/02 05:20:21;;;;;;;1.73;1.00;;;1.00;90.10;;;;;;5116300;28;20355;-86
2022/01/02 05:22:47;;;;;;;1.00;0.88;;;1.00;89.80;;;;;;5116832;28;20514;-86
2022/01/02 05:25:12;;;;;;;1.02;0.90;;;0.90;89.00;;;;;;5115489;28;20035;-87
2022/01/02 05:27:38;;;;;;;1.10;0.85;;;0.90;88.70;;;;;;5116653;28;20027;-85
2022/01/02 05:30:04;;;;;;;0.90;0.90;;;0.90;89.30;;;;;;5113764;28;20072;-84
2022/01/02 05:32:30;;;;;;;0.95;0.93;;;0.80;88.20;;;;;;5115220;28;20080;-85
2022/01/02 05:34:56;;;;;;;1.75;1.20;;;0.80;88.30;;;;;;5114556;28;20443;-85
2022/01/02 05:37:21;;;;;;;2.45;1.30;;;0.80;88.00;;;;;;5115912;28;20052;-85
2022/01/02 05:39:47;;;;;;;1.52;0.93;;;0.80;88.30;;;;;;5114999;28;20024;-86
2022/01/02 05:42:14;;;;;;;1.20;1.08;;;0.80;88.70;;;;;;5115047;28;20058;-85
2022/01/02 05:44:39;;;;;;;1.13;0.77;;;0.80;88.50;;;;;;5122830;28;20071;-85
2022/01/02 05:47:05;;;;;;;1.20;1.10;;;0.80;87.70;;;;;;5125640;28;20039;-88
2022/01/02 05:49:32;;;;;;;0.90;0.90;;;0.80;87.70;;;;;;5118782;28;20049;-86
2022/01/02 05:51:58;;;;;;;1.20;1.08;;;0.80;88.10;;;;;;5121088;28;20114;-84
2022/01/02 05:54:27;;;;;;;1.58;1.13;;;0.80;87.50;;;;;;5134963;27;20023;-85
2022/01/02 05:56:54;;;;;;;1.88;1.10;;;0.80;86.80;;;;;;5132076;27;20036;-87
2022/01/02 05:59:21;;;;;;;1.45;1.20;;;0.80;86.80;;;;;;5115690;28;20035;-84
2022/01/02 06:01:47;;;;;;;1.40;1.30;;;0.80;86.90;;;;;;5114659;27;20055;-84
2022/01/02 06:04:13;;;;;;;1.20;1.08;;;0.70;86.10;;;;;;5135246;27;20027;-84
2022/01/02 06:06:39;;;;;;;1.50;1.23;;;0.70;86.10;;;;;;5131195;27;20416;-85
2022/01/02 06:09:05;;;;;;;1.73;1.17;;;0.70;86.00;;;;;;5131141;27;20465;-84
2022/01/02 06:11:31;;;;;;;1.48;1.10;;;0.70;86.60;;;;;;5115200;28;20034;-85
2022/01/02 06:13:57;;;;;;;2.00;1.50;;;0.70;85.30;;;;;;5131363;27;20373;-85
2022/01/02 06:16:22;;;;;;;2.47;1.42;;;0.70;84.60;;;;;;5131547;27;20038;-84
2022/01/02 06:18:48;;;;;;;1.30;1.10;;;0.60;84.70;;;;;;5131392;27;20099;-85
2022/01/02 06:21:14;;;;;;;2.25;1.40;;;0.60;84.20;;;;;;5132400;27;20030;-84
2022/01/02 06:23:40;;;;;;;2.75;1.70;;;0.60;83.50;;;;;;5115186;28;20019;-85
2022/01/02 06:26:06;;;;;;;2.92;1.70;;;0.50;82.70;;;;;;5130460;27;20466;-85
2022/01/02 06:28:34;;;;;;;2.22;1.55;;;0.50;82.00;;;;;;5115029;28;20024;-86
2022/01/02 06:31:06;;;;;;;2.65;1.48;;;0.40;81.90;;;;;;5113336;28;20028;-86
2022/01/02 06:33:32;;;;;;;2.38;1.45;;;0.30;78.90;;;;;;5113557;28;20034;-85
2022/01/02 06:35:57;;;;;;;2.28;1.38;;;0.20;80.00;;;;;;5113664;28;20047;-86
2022/01/02 06:38:23;;;;;;;1.30;1.20;;;0.20;80.00;;;;;;5113419;28;20123;-86
2022/01/02 06:40:52;;;;;;;1.35;1.15;;;0.10;80.10;;;;;;5113815;28;20027;-85
2022/01/02 06:43:18;;;;;;;2.60;1.52;;;0.00;79.80;;;;;;5112825;28;20023;-87
2022/01/02 06:45:44;;;;;;;2.40;1.60;;;0.00;80.00;;;;;;5113255;28;20020;-85
2022/01/02 06:48:10;;;;;;;3.00;1.80;;;0.00;78.90;;;;;;5116568;28;20461;-85
2022/01/02 06:50:36;;;;;;;2.53;1.70;;;-0.10;80.10;;;;;;5118473;28;20076;-85
2022/01/02 06:53:03;;;;;;;2.40;1.58;;;-0.20;79.70;;;;;;5117890;28;20032;-85
2022/01/02 06:55:29;;;;;;;2.72;1.48;;;-0.10;79.90;;;;;;5112821;28;20059;-84
2022/01/02 06:57:54;;;;;;;1.27;1.17;;;-0.20;79.80;;;;;;5114431;28;20035;-85
2022/01/02 07:00:20;;;;;;;1.85;1.27;;;-0.20;80.80;;;;;;5113633;28;20036;-87
2022/01/02 07:02:46;;;;;;;3.20;1.60;;;-0.20;80.70;;;;;;5115375;28;20019;-87
2022/01/02 07:05:12;;;;;;;2.38;1.60;;;-0.20;80.00;;;;;;5114631;28;20035;-85
2022/01/02 07:07:45;;;;;;;2.17;1.50;;;-0.10;80.60;;;;;;5114536;28;20024;-87
2022/01/02 07:10:13;;;;;;;2.00;1.30;;;-0.10;79.80;;;;;;5113480;28;20036;-85
2022/01/02 07:12:39;;;;;;;2.15;1.45;;;0.00;80.50;;;;;;5113170;28;20027;-85
2022/01/02 07:15:06;;;;;;;2.47;1.45;;;0.10;80.90;;;;;;5113163;28;20089;-86
2022/01/02 07:17:32;;;;;;;1.92;1.50;;;0.10;80.50;;;;;;5114441;28;20168;-86
2022/01/02 07:19:58;;;;;;;2.72;1.75;;;0.10;79.70;;;;;;5114535;28;20059;-87
2022/01/02 07:22:23;;;;;;;1.67;1.38;;;0.00;78.90;;;;;;5114725;28;20047;-86
2022/01/02 07:24:51;;;;;;;2.17;1.50;;;0.10;81.40;;;;;;5096074;28;20032;-85
2022/01/02 07:27:20;;;;;;;3.70;1.75;;;0.30;79.00;;;;;;5114239;28;20020;-86
2022/01/02 07:29:51;;;;;;;3.20;1.85;;;0.30;77.80;;;;;;5114385;28;20446;-86
2022/01/02 07:32:17;;;;;;;;;;;0.30;77.10;;;;;;5114783;28;20039;-87
2022/01/02 07:34:43;;;;;;;3.53;1.70;;;0.30;73.30;;;;;;5113042;28;19908;-87
2022/01/02 07:37:10;;;;;;;2.10;1.52;;;0.30;77.00;;;;;;5113308;28;20402;-87
2022/01/02 07:39:37;;;;;;;2.78;1.33;;;0.30;77.30;;;;;;5112646;28;20081;-86
2022/01/02 07:42:04;;;;;;;1.83;1.38;;;0.20;76.30;;;;;;5113056;28;20114;-86
2022/01/02 07:44:29;;;;;;;2.90;1.65;;;0.20;77.30;;;;;;5112858;28;20436;-85
2022/01/02 07:46:55;;;;;;;2.45;1.88;;;0.20;77.30;;;;;;5113996;28;20032;-84
2022/01/02 07:49:21;;;;;;;1.83;1.48;;;0.10;76.50;;;;;;5115791;28;20028;-86
2022/01/02 07:51:47;;;;;;;2.47;1.55;;;0.10;77.10;;;;;;5115270;28;20031;-85
2022/01/02 07:54:13;;;;;;;2.55;1.70;;;0.20;77.80;;;;;;5114514;28;20055;-85
2022/01/02 07:56:40;;;;;;;2.30;1.75;;;0.30;78.10;;;;;;5091514;28;20027;-86
2022/01/02 07:59:05;;;;;;;2.70;1.70;;;0.40;77.10;;;;;;5118224;28;20034;-85
2022/01/02 08:01:31;;;;;;;1.95;1.70;;;0.40;76.90;;;;;;5118417;28;20043;-85
2022/01/02 08:03:57;;;;;;;2.30;1.83;;;0.40;76.30;;;;;;5120114;28;20050;-86
2022/01/02 08:06:23;;;;;;;3.08;1.90;;;0.50;76.40;;;;;;5122006;28;20031;-85
2022/01/02 08:08:49;;;;;;;2.65;1.70;;;0.50;76.20;;;;;;5122243;28;20103;-86
2022/01/02 08:11:15;;;;;;;2.53;1.73;;;0.50;75.60;;;;;;5117522;28;20054;-85
2022/01/02 08:13:42;;;;;;;4.00;2.10;;;0.50;75.90;;;;;;5099478;28;20039;-88
2022/01/02 08:16:08;;;;;;;5.72;2.58;;;0.50;75.30;;;;;;5116057;28;20055;-87
2022/01/02 08:18:33;;;;;;;3.53;2.03;;;0.50;75.90;;;;;;5116186;28;20055;-87
2022/01/02 08:21:02;;;;;;;3.58;2.08;;;0.60;76.00;;;;;;5116237;28;20396;-87
2022/01/02 08:23:27;;;;;;;2.72;1.88;;;0.50;75.70;;;;;;5116025;28;20035;-87
2022/01/02 08:25:56;;;;;;;3.28;2.00;;;0.50;76.10;;;;;;5117592;28;20488;-87
2022/01/02 08:28:21;;;;;;;2.70;1.95;;;0.60;76.50;;;;;;5116882;28;20027;-89
2022/01/02 08:30:48;;;;;;;3.40;2.00;;;0.60;75.80;;;;;;5117355;28;20467;-85
2022/01/02 08:33:14;;;;;;;3.13;1.77;;;0.60;75.80;;;;;;5117380;28;20027;-86
2022/01/02 08:35:41;;;;;;;3.58;2.20;;;0.70;75.50;;;;;;5115960;28;20043;-85
2022/01/02 08:38:07;;;;;;;2.83;1.92;;;0.80;77.40;;;;;;5116987;28;20027;-87
2022/01/02 08:40:34;;;;;;;2.83;1.80;;;1.00;76.20;;;;;;5116918;28;20019;-88
2022/01/02 08:43:00;;;;;;;3.08;1.88;;;1.00;76.00;;;;;;5115685;28;20032;-86
2022/01/02 08:45:25;;;;;;;2.97;1.90;;;1.10;75.20;;;;;;5115797;28;20027;-84
2022/01/02 08:47:51;;;;;;;4.18;2.15;;;1.00;74.40;;;;;;5117366;28;20031;-83
2022/01/02 08:50:17;;;;;;;3.60;2.42;;;1.00;74.00;;;;;;5120795;28;20116;-84
2022/01/02 08:52:43;;;;;;;3.08;2.00;;;1.00;74.30;;;;;;5111914;28;20486;-85
2022/01/02 08:55:09;;;;;;;3.97;2.30;;;1.00;74.30;;;;;;5106136;28;20373;-85
2022/01/02 08:57:35;;;;;;;4.82;2.33;;;1.00;74.90;;;;;;5116458;28;20027;-84
2022/01/02 09:00:01;;;;;;;3.53;2.13;;;1.10;74.50;;;;;;5122043;28;20036;-83
2022/01/02 09:02:26;;;;;;;5.00;2.80;;;1.10;74.70;;;;;;5115834;28;20423;-84
2022/01/02 09:04:52;;;;;;;4.90;2.90;;;1.10;75.10;;;;;;5132523;27;20023;-84
2022/01/02 09:07:18;;;;;;;4.32;2.50;;;1.20;75.50;;;;;;5116163;28;20370;-85
2022/01/02 09:09:43;;;;;;;5.43;2.70;;;1.20;74.90;;;;;;5114645;28;20055;-83
2022/01/02 09:12:11;;;;;;;4.20;2.40;;;1.50;76.20;;;;;;5111903;28;20050;-84
2022/01/02 09:14:37;;;;;;;5.13;2.00;;;2.10;73.00;;;;;;5104842;28;20020;-84
2022/01/02 09:17:03;;;;;;;3.13;1.88;;;2.20;69.20;;;;;;5112299;28;20035;-85
2022/01/02 09:19:29;;;;;;;2.30;1.63;;;2.10;68.40;;;;;;5086496;28;20044;-84
2022/01/02 09:21:54;;;;;;;3.67;2.00;;;1.90;68.30;;;;;;5108257;28;20104;-83
2022/01/02 09:24:20;;;;;;;3.45;2.17;;;1.80;69.50;;;;;;5103002;28;20024;-86
2022/01/02 09:26:46;;;;;;;3.13;2.05;;;1.80;71.30;;;;;;5113237;28;20054;-86
2022/01/02 09:29:12;;;;;;;3.15;1.90;;;2.30;72.90;;;;;;5119852;27;20030;-85
2022/01/02 09:31:38;;;;;;;2.83;1.75;;;2.80;70.20;;;;;;5110406;28;20039;-86
2022/01/02 09:34:04;;;;;;;3.03;1.98;;;3.10;68.30;;;;;;5109080;28;20034;-84
2022/01/02 09:36:30;;;;;;;2.70;1.90;;;3.10;68.60;;;;;;5115676;28;20055;-85
2022/01/02 09:38:57;;;;;;;3.20;1.70;;;3.60;70.00;;;;;;5115763;28;20094;-84
2022/01/02 09:41:23;;;;;;;2.72;1.70;;;4.30;67.60;;;;;;5114522;28;20038;-84
2022/01/02 09:43:49;;;;;;;2.10;1.40;;;5.00;65.10;;;;;;5115391;28;20111;-85
2022/01/02 09:46:23;;;;;;;2.78;1.58;;;5.60;64.40;;;;;;5114538;28;20047;-86
2022/01/02 09:48:50;;;;;;;2.63;1.50;;;6.40;62.50;;;;;;5115457;28;20080;-84
2022/01/02 09:51:25;;;;;;;2.45;1.23;;;6.90;61.40;;;;;;5115040;28;20020;-84
2022/01/02 09:53:52;;;;;;;2.28;1.52;;;7.40;57.80;;;;;;5115336;28;20031;-84
2022/01/02 09:56:18;;;;;;;2.95;1.70;;;7.90;59.70;;;;;;5114382;28;20027;-86
2022/01/02 09:58:44;;;;;;;2.67;1.88;;;8.20;57.00;;;;;;5114642;28;20473;-84
2022/01/02 10:01:21;;;;;;;2.40;1.50;;;8.70;56.40;;;;;;5098052;28;20039;-85
2022/01/02 10:03:54;;;;;;;2.38;1.67;;;9.10;55.60;;;;;;5094499;28;20020;-83
2022/01/02 10:06:21;;;;;;;2.55;1.70;;;8.90;53.50;;;;;;5114321;28;20028;-88
2022/01/02 10:08:48;;;;;;;2.08;1.63;;;9.00;52.50;;;;;;5114112;28;20028;-83
2022/01/02 10:11:22;;;;;;;3.85;1.80;;;8.90;52.20;;;;;;5101684;28;20111;-81
2022/01/02 10:13:50;;;;;;;28.95;20.27;;;8.90;52.30;;;;;;5094717;28;20103;-82
2022/01/02 10:16:34;;;;;;;9.77;6.82;;;9.00;52.40;;;;;;5093480;28;20032;-87
2022/01/02 10:19:18;;;;;;;5.55;3.40;;;9.40;49.70;;;;;;5093150;28;20470;-87
2022/01/02 10:21:51;;;;;;;3.30;2.10;;;9.80;48.20;;;;;;5093999;28;20173;-86
2022/01/02 10:24:29;;;;;;;1.88;1.70;;;9.90;51.50;;;;;;5093829;28;20024;-85
2022/01/02 10:27:07;;;;;;;1.50;1.17;;;10.20;50.40;;;;;;5095685;28;20070;-84
2022/01/02 10:29:56;;;;;;;2.13;1.40;;;10.30;49.80;;;;;;5097139;28;20023;-83
2022/01/02 10:32:25;;;;;;;2.22;1.60;;;10.30;44.80;;;;;;5077484;28;20059;-85
2022/01/02 10:34:52;;;;;;;1.20;1.10;;;10.30;48.40;;;;;;5094354;28;20073;-84
2022/01/02 10:37:25;;;;;;;2.13;1.40;;;10.20;47.60;;;;;;5102263;28;20048;-86
2022/01/02 10:39:52;;;;;;;9.43;6.35;;;10.10;46.30;;;;;;5101820;28;20051;-81
2022/01/02 10:42:20;;;;;;;10.25;6.50;;;10.10;47.90;;;;;;5103848;28;20027;-83
2022/01/02 10:44:46;;;;;;;5.30;3.58;;;10.10;47.40;;;;;;5103352;28;20028;-82
2022/01/02 10:47:16;;;;;;;3.45;2.30;;;9.90;46.40;;;;;;5102528;28;20075;-84
2022/01/02 10:50:04;;;;;;;2.83;2.00;;;10.00;47.30;;;;;;5096044;28;20034;-86
2022/01/02 10:52:41;;;;;;;2.95;1.73;;;10.00;42.00;;;;;;5095761;28;20035;-83
2022/01/02 10:55:15;;;;;;;3.60;1.80;;;10.00;47.20;;;;;;5096572;28;20025;-82
2022/01/02 10:57:42;;;;;;;1.95;1.60;;;10.20;46.00;;;;;;5094092;28;20031;-83
2022/01/02 11:00:11;;;;;;;2.70;1.60;;;10.30;46.90;;;;;;5093402;28;20378;-86
2022/01/02 11:02:39;;;;;;;1.70;1.58;;;10.40;46.30;;;;;;5093903;28;20038;-88
2022/01/02 11:05:13;;;;;;;3.35;1.73;;;10.30;45.90;;;;;;5093483;28;20538;-85
2022/01/02 11:07:49;;;;;;;8.25;5.32;;;10.30;46.30;;;;;;5094173;28;20024;-85
2022/01/02 11:10:22;;;;;;;4.15;2.67;;;10.40;43.20;;;;;;5094115;28;20507;-84
2022/01/02 11:12:51;;;;;;;4.45;2.10;;;10.60;45.30;;;;;;5093181;28;20427;-85
2022/01/02 11:15:20;;;;;;;2.60;1.95;;;10.20;44.00;;;;;;5092652;28;20020;-87
2022/01/02 11:17:46;;;;;;;1.95;1.60;;;10.30;44.70;;;;;;5092494;28;20031;-85
2022/01/02 11:20:18;;;;;;;2.42;1.65;;;10.40;44.40;;;;;;5093117;28;20035;-88
2022/01/02 11:22:54;;;;;;;33.80;20.65;;;10.50;44.30;;;;;;5092424;28;20031;-84
2022/01/02 11:25:38;;;;;;;12.68;8.82;;;10.60;44.70;;;;;;5094181;28;20024;-84
2022/01/02 11:28:09;;;;;;;6.97;4.50;;;10.80;41.90;;;;;;5092977;28;20051;-88
2022/01/02 11:30:37;;;;;;;8.20;5.50;;;11.10;44.20;;;;;;5097591;28;20028;-87
2022/01/02 11:33:05;;;;;;;5.03;3.28;;;11.20;43.80;;;;;;5095878;28;20390;-85
2022/01/02 11:35:32;;;;;;;4.22;2.50;;;11.00;43.50;;;;;;5099234;28;20035;-87
2022/01/02 11:38:08;;;;;;;3.40;2.20;;;11.10;43.40;;;;;;5117529;28;20027;-89
2022/01/02 11:41:03;;;;;;;2.50;1.88;;;11.20;41.60;;;;;;5118698;28;20108;-84
2022/01/02 11:43:35;;;;;;;2.75;1.60;;;11.10;41.90;;;;;;5118321;28;20027;-85
2022/01/02 11:46:13;;;;;;;2.50;1.80;;;11.10;43.00;;;;;;5119763;28;20035;-83
2022/01/02 11:48:40;;;;;;;2.13;1.70;;;11.40;42.40;;;;;;5119513;28;20369;-80
2022/01/02 11:51:06;;;;;;;2.03;1.67;;;11.40;43.30;;;;;;5134303;27;20134;-83
2022/01/02 11:53:35;;;;;;;2.83;2.00;;;11.50;43.00;;;;;;5116526;28;20430;-82
2022/01/02 11:56:02;;;;;;;3.13;2.00;;;11.60;42.90;;;;;;5117210;28;20032;-80
2022/01/02 11:58:46;;;;;;;7.90;4.90;;;11.70;42.60;;;;;;5117514;28;20032;-84
2022/01/02 12:01:46;;;;;;;10.50;7.07;;;11.70;39.80;;;;;;5116961;28;20556;-85
2022/01/02 12:04:12;;;;;;;31.48;21.13;;;11.50;39.10;;;;;;5133391;27;20048;-84
2022/01/02 12:06:37;;;;;;;15.88;10.75;;;11.30;42.30;;;;;;5117514;28;20077;-80
2022/01/02 12:09:37;;;;;;;7.28;4.60;;;11.10;42.20;;;;;;5115666;28;20414;-79
2022/01/02 12:12:06;;;;;;;4.28;2.60;;;10.90;40.70;;;;;;5132580;27;20071;-79
